Time;durP1;ratioP1;P1;durP2;ratioP2;P2;SDS_P1;SDS_P2;PMS_P1;PMS_P2;Temp;Humidity;BMP_temperature;BMP_pressure;BME280_temperature;BME280_humidity;BME280_pressure;Samples;Min_cycle;Max_cycle;Signal;HPM_P1;HPM_P2
2024/01/26 21:32:37;;;;;;;10.10;7.00;;;;;;;;;;44174;308;3011813;-32
2024/01/26 21:34:24;;;;;;;8.70;6.50;;;;;;;;;;43212;287;3031020;-32
2024/01/26 21:36:14;;;;;;;8.20;6.30;;;;;;;;;;43573;281;3031723;-33
2024/01/26 21:38:03;;;;;;;8.30;6.50;;;;;;;;;;43610;273;3031773;-32
2024/01/26 21:39:51;;;;;;;8.10;6.70;;;;;;;;;;43303;284;3031812;-32
2024/01/26 21:41:39;;;;;;;8.60;6.20;;;;;;;;;;43298;276;3031146;-32
2024/01/26 21:43:29;;;;;;;8.40;6.30;;;;;;;;;;43254;284;3031749;-31
2024/01/26 21:45:15;;;;;;;8.40;6.70;;;;;;;;;;43272;280;3031625;-32
2024/01/26 21:47:00;;;;;;;8.10;6.10;;;;;;;;;;43658;280;3480570;-33
2024/01/26 21:48:48;;;;;;;9.10;6.20;;;;;;;;;;43892;278;3031849;-34
2024/01/26 21:50:39;;;;;;;10.00;6.90;;;;;;;;;;43308;275;3032186;-34
2024/01/26 21:52:29;;;;;;;9.10;6.60;;;;;;;;;;43332;275;3031638;-33
2024/01/26 21:54:18;;;;;;;9.40;6.90;;;;;;;;;;43384;275;3031639;-31
2024/01/26 21:56:08;;;;;;;9.30;7.00;;;;;;;;;;43385;282;3031791;-31
2024/01/26 21:57:52;;;;;;;9.00;7.00;;;;;;;;;;43751;282;3031024;-31
2024/01/26 21:59:41;;;;;;;8.60;6.60;;;;;;;;;;43332;283;3031576;-31
2024/01/26 22:01:28;;;;;;;8.80;6.70;;;;;;;;;;43324;282;3031779;-31
2024/01/26 22:03:15;;;;;;;9.60;6.80;;;;;;;;;;44037;279;3031044;-32
2024/01/26 22:05:00;;;;;;;8.90;6.70;;;;;;;;;;44102;279;3032036;-32
2024/01/26 22:06:48;;;;;;;8.40;6.80;;;;;;;;;;43623;282;3031355;-31
2024/01/26 22:08:41;;;;;;;9.30;6.80;;;;;;;;;;43386;282;3031682;-32
2024/01/26 22:10:33;;;;;;;10.40;7.20;;;;;;;;;;43572;270;3031151;-32
2024/01/26 22:12:28;;;;;;;9.70;6.70;;;;;;;;;;43572;270;3031787;-32
2024/01/26 22:14:15;;;;;;;9.80;7.10;;;;;;;;;;44287;274;3037602;-32
2024/01/26 22:16:00;;;;;;;9.90;6.70;;;;;;;;;;44304;266;3031772;-32
2024/01/26 22:17:45;;;;;;;11.20;6.80;;;;;;;;;;44316;270;3031260;-30
2024/01/26 22:19:30;;;;;;;9.30;6.80;;;;;;;;;;44279;270;3031319;-31
2024/01/26 22:21:15;;;;;;;9.30;7.20;;;;;;;;;;44301;274;3031498;-31
2024/01/26 22:23:00;;;;;;;8.60;6.80;;;;;;;;;;44214;270;3031785;-32
2024/01/26 22:24:49;;;;;;;8.80;7.30;;;;;;;;;;44011;270;3037867;-32
2024/01/26 22:26:39;;;;;;;8.80;7.10;;;;;;;;;;43584;286;3031930;-32
2024/01/26 22:28:31;;;;;;;8.20;6.70;;;;;;;;;;43581;274;3031783;-31
2024/01/26 22:30:18;;;;;;;8.80;6.90;;;;;;;;;;43560;274;3031387;-30
2024/01/26 22:32:07;;;;;;;10.60;7.10;;;;;;;;;;44035;278;3030918;-30
2024/01/26 22:33:54;;;;;;;8.90;7.40;;;;;;;;;;43708;274;3031894;-30
2024/01/26 22:35:44;;;;;;;9.30;7.10;;;;;;;;;;43582;270;3031355;-30
2024/01/26 22:37:37;;;;;;;8.80;7.40;;;;;;;;;;43592;278;3031237;-32
2024/01/26 22:39:23;;;;;;;9.10;7.40;;;;;;;;;;44246;278;3031965;-32
2024/01/26 22:41:11;;;;;;;8.70;7.30;;;;;;;;;;43573;271;3031532;-32
2024/01/26 22:43:02;;;;;;;9.70;7.60;;;;;;;;;;43542;278;3032404;-32
2024/01/26 22:44:49;;;;;;;8.50;6.90;;;;;;;;;;43573;271;3031573;-33
2024/01/26 22:46:35;;;;;;;9.00;7.30;;;;;;;;;;44229;274;3030986;-32
2024/01/26 22:48:20;;;;;;;9.40;7.40;;;;;;;;;;44214;275;3031125;-32
2024/01/26 22:50:06;;;;;;;9.00;7.30;;;;;;;;;;44243;275;3030758;-33
2024/01/26 22:51:51;;;;;;;9.30;7.10;;;;;;;;;;44271;275;3031298;-31
2024/01/26 22:53:36;;;;;;;9.50;7.20;;;;;;;;;;44252;279;3030932;-30
2024/01/26 22:55:21;;;;;;;9.40;7.40;;;;;;;;;;44219;266;3037461;-32
2024/01/26 22:57:08;;;;;;;10.30;7.50;;;;;;;;;;44312;274;3031128;-31
2024/01/26 22:58:53;;;;;;;9.00;7.30;;;;;;;;;;44219;278;3031423;-30
2024/01/26 23:00:38;;;;;;;9.20;7.50;;;;;;;;;;44260;269;3031963;-30
2024/01/26 23:02:23;;;;;;;9.90;7.80;;;;;;;;;;44209;271;3030972;-31
2024/01/26 23:04:10;;;;;;;9.00;7.20;;;;;;;;;;43611;270;3031736;-31
2024/01/26 23:06:03;;;;;;;9.40;7.10;;;;;;;;;;43568;278;3037850;-30
2024/01/26 23:07:55;;;;;;;9.30;7.10;;;;;;;;;;43579;270;3032008;-30
2024/01/26 23:09:44;;;;;;;9.60;7.30;;;;;;;;;;43582;270;3031570;-30
2024/01/26 23:11:32;;;;;;;9.30;7.10;;;;;;;;;;43589;278;3031447;-30
2024/01/26 23:13:21;;;;;;;9.40;7.30;;;;;;;;;;43565;282;3031078;-30
2024/01/26 23:15:08;;;;;;;9.20;7.20;;;;;;;;;;43568;274;3032912;-30
2024/01/26 23:16:53;;;;;;;10.10;7.30;;;;;;;;;;44236;270;3031369;-30
2024/01/26 23:18:39;;;;;;;9.30;7.00;;;;;;;;;;44265;274;3031247;-31
2024/01/26 23:20:25;;;;;;;9.10;7.10;;;;;;;;;;44278;274;3032804;-31
2024/01/26 23:22:10;;;;;;;9.60;7.60;;;;;;;;;;44232;270;3031008;-30
2024/01/26 23:23:55;;;;;;;9.20;7.40;;;;;;;;;;44264;270;3031765;-30
2024/01/26 23:25:39;;;;;;;8.70;6.90;;;;;;;;;;44190;270;3031106;-31
2024/01/26 23:27:33;;;;;;;9.90;7.60;;;;;;;;;;43789;266;3031568;-31
2024/01/26 23:29:24;;;;;;;10.30;7.80;;;;;;;;;;43589;278;3032742;-30
2024/01/26 23:31:16;;;;;;;10.30;7.60;;;;;;;;;;43609;278;3031420;-31
2024/01/26 23:33:06;;;;;;;9.80;7.90;;;;;;;;;;43583;278;3031808;-30
2024/01/26 23:34:51;;;;;;;10.40;7.30;;;;;;;;;;44196;270;3031361;-30
2024/01/26 23:36:36;;;;;;;10.00;7.30;;;;;;;;;;44307;274;3039259;-31
2024/01/26 23:38:21;;;;;;;9.90;7.20;;;;;;;;;;44207;270;3032067;-30
2024/01/26 23:40:09;;;;;;;11.40;7.90;;;;;;;;;;43775;278;3031116;-30
2024/01/26 23:41:53;;;;;;;9.60;7.00;;;;;;;;;;44274;274;3031989;-31
2024/01/26 23:43:38;;;;;;;9.60;6.80;;;;;;;;;;44316;266;3031998;-30
2024/01/26 23:45:26;;;;;;;10.20;7.10;;;;;;;;;;43913;270;3031840;-30
2024/01/26 23:47:15;;;;;;;9.50;6.80;;;;;;;;;;43577;270;3038053;-30
2024/01/26 23:49:13;;;;;;;9.50;6.80;;;;;;;;;;43592;286;3031242;-30
2024/01/26 23:51:10;;;;;;;9.10;6.90;;;;;;;;;;43585;278;3031262;-31
2024/01/26 23:52:59;;;;;;;9.10;6.10;;;;;;;;;;43594;270;3031651;-32
2024/01/26 23:54:46;;;;;;;8.90;6.40;;;;;;;;;;43569;278;3031856;-30
2024/01/26 23:56:33;;;;;;;8.50;6.00;;;;;;;;;;43529;266;3031782;-31
2024/01/26 23:58:19;;;;;;;9.10;6.40;;;;;;;;;;43574;278;3031099;-32
